Time;durP1;ratioP1;P1;durP2;ratioP2;P2;SDS_P1;SDS_P2;PMS_P1;PMS_P2;Temp;Humidity;BMP_temperature;BMP_pressure;BME280_temperature;BME280_humidity;BME280_pressure;Samples;Min_cycle;Max_cycle;Signal;HPM_P1;HPM_P2
2023/11/08 00:00:58;;;;;;;6.00;2.23;;;;;9.70;96700.00;;;;5105730;28;20225;-87
2023/11/08 00:03:47;;;;;;;5.57;2.10;;;;;9.50;96708.00;;;;5102229;28;20223;-85
2023/11/08 00:06:37;;;;;;;4.00;1.53;;;;;9.50;96708.00;;;;5104715;28;20202;-84
2023/11/08 00:09:26;;;;;;;4.50;1.80;;;;;9.70;96718.00;;;;5110355;28;20206;-83
2023/11/08 00:12:17;;;;;;;9.30;3.33;;;;;9.70;96716.00;;;;5110983;28;20222;-85
2023/11/08 00:15:08;;;;;;;4.80;1.90;;;;;9.60;96722.00;;;;5111582;28;20199;-83
2023/11/08 00:17:58;;;;;;;5.23;1.97;;;;;9.70;96727.00;;;;5111140;28;20214;-85
2023/11/08 00:20:47;;;;;;;4.47;1.73;;;;;9.70;96729.00;;;;5110057;28;20230;-84
2023/11/08 00:23:37;;;;;;;3.87;1.47;;;;;9.70;96731.00;;;;5111146;28;20220;-84
2023/11/08 00:26:26;;;;;;;6.07;2.20;;;;;9.80;96741.00;;;;5124331;28;20206;-83
2023/11/08 00:29:16;;;;;;;11.83;4.27;;;;;9.80;96751.00;;;;5128402;28;20191;-85
2023/11/08 00:32:06;;;;;;;6.00;2.23;;;;;9.80;96744.00;;;;5109787;28;20623;-85
2023/11/08 00:34:55;;;;;;;5.27;1.93;;;;;9.70;96749.00;;;;5105531;28;20207;-85
2023/11/08 00:37:44;;;;;;;4.33;1.67;;;;;9.80;96752.00;;;;5104095;27;20574;-85
2023/11/08 00:40:33;;;;;;;5.27;2.00;;;;;9.80;96757.00;;;;5110502;28;20209;-84
2023/11/08 00:43:22;;;;;;;8.07;3.17;;;;;9.50;96761.00;;;;5107783;28;20226;-84
2023/11/08 00:46:13;;;;;;;8.50;3.03;;;;;9.70;96760.00;;;;5109170;28;20214;-85
2023/11/08 00:49:03;;;;;;;10.17;3.40;;;;;9.70;96760.00;;;;5099976;27;20692;-84
2023/11/08 00:51:52;;;;;;;6.27;2.37;;;;;9.80;96769.00;;;;5095372;28;20737;-84
2023/11/08 00:54:41;;;;;;;6.30;2.23;;;;;9.80;96771.00;;;;5097220;28;20199;-85
2023/11/08 00:57:31;;;;;;;6.93;2.47;;;;;9.60;96773.00;;;;5108131;28;20694;-85
2023/11/08 01:00:21;;;;;;;10.43;3.70;;;;;9.30;96767.00;;;;5106359;28;20198;-85
2023/11/08 01:03:12;;;;;;;10.47;3.57;;;;;9.60;96764.00;;;;5105873;28;20229;-85
2023/11/08 01:06:02;;;;;;;6.37;2.20;;;;;9.30;96771.00;;;;5108544;28;20622;-85
2023/11/08 01:08:51;;;;;;;4.90;1.77;;;;;9.40;96771.00;;;;5096474;27;20195;-86
2023/11/08 01:11:41;;;;;;;5.17;1.87;;;;;9.60;96763.00;;;;5103088;28;20222;-85
2023/11/08 01:14:30;;;;;;;6.20;2.20;;;;;9.70;96773.00;;;;5108834;28;20211;-85
2023/11/08 01:17:19;;;;;;;16.87;5.73;;;;;9.50;96770.00;;;;5106414;28;20228;-85
2023/11/08 01:20:12;;;;;;;9.90;3.30;;;;;9.20;96764.00;;;;5107614;28;20207;-85
2023/11/08 01:23:02;;;;;;;7.77;2.63;;;;;9.00;96762.00;;;;5096614;28;20216;-84
2023/11/08 01:25:51;;;;;;;6.70;2.23;;;;;9.20;96770.00;;;;5098680;28;20213;-85
2023/11/08 01:28:40;;;;;;;6.57;2.23;;;;;9.40;96755.00;;;;5106795;27;20207;-86
2023/11/08 01:31:30;;;;;;;7.13;2.40;;;;;9.60;96764.00;;;;5109076;28;20223;-85
2023/11/08 01:34:19;;;;;;;9.50;3.10;;;;;9.60;96767.00;;;;5108507;28;20202;-85
2023/11/08 01:37:10;;;;;;;12.27;3.73;;;;;9.30;96760.00;;;;5109255;28;20618;-83
2023/11/08 01:39:59;;;;;;;6.00;1.90;;;;;9.00;96766.00;;;;5115365;28;20202;-84
2023/11/08 01:42:48;;;;;;;7.07;2.27;;;;;8.90;96767.00;;;;5125966;28;20219;-84
2023/11/08 01:45:38;;;;;;;8.73;2.77;;;;;9.30;96771.00;;;;5124998;28;20194;-84
2023/11/08 01:48:27;;;;;;;4.13;2.00;;;;;9.40;96765.00;;;;5130583;28;20207;-85
2023/11/08 01:51:16;;;;;;;6.23;3.27;;;;;9.20;96770.00;;;;5131093;28;20227;-85
2023/11/08 01:54:07;;;;;;;3.67;1.90;;;;;9.20;96759.00;;;;5131275;28;20199;-84
2023/11/08 01:56:57;;;;;;;2.60;1.57;;;;;9.40;96758.00;;;;5123910;28;20203;-85
2023/11/08 01:59:47;;;;;;;3.00;1.80;;;;;9.40;96769.00;;;;5125830;28;20385;-85
2023/11/08 02:02:36;;;;;;;3.33;1.87;;;;;9.50;96758.00;;;;5131654;28;20230;-84
2023/11/08 02:05:25;;;;;;;3.63;2.17;;;;;9.50;96762.00;;;;5127015;28;20215;-85
2023/11/08 02:08:14;;;;;;;4.43;2.70;;;;;9.40;96749.00;;;;5130935;28;20217;-85
2023/11/08 02:11:05;;;;;;;3.83;2.13;;;;;9.20;96761.00;;;;5122271;28;20233;-85
2023/11/08 02:13:54;;;;;;;3.23;1.73;;;;;9.10;96754.00;;;;5106044;28;20190;-85
2023/11/08 02:16:43;;;;;;;2.80;1.60;;;;;9.10;96752.00;;;;5089759;28;20207;-85
2023/11/08 02:19:32;;;;;;;3.30;1.80;;;;;9.30;96760.00;;;;5099245;28;20202;-86
2023/11/08 02:22:22;;;;;;;5.77;3.30;;;;;9.10;96752.00;;;;5102141;28;20825;-85
2023/11/08 02:25:13;;;;;;;5.27;2.87;;;;;8.90;96757.00;;;;5107251;28;20209;-86
2023/11/08 02:28:02;;;;;;;2.50;1.50;;;;;8.90;96768.00;;;;5107285;28;20202;-85
2023/11/08 02:30:53;;;;;;;2.67;1.47;;;;;8.90;96769.00;;;;5102755;28;20219;-85
2023/11/08 02:33:43;;;;;;;2.83;1.73;;;;;9.00;96769.00;;;;5106886;28;20205;-85
2023/11/08 02:36:33;;;;;;;2.90;1.70;;;;;9.20;96766.00;;;;5104317;28;20666;-85
2023/11/08 02:39:22;;;;;;;3.97;2.40;;;;;9.20;96768.00;;;;5106826;28;20584;-86
2023/11/08 02:42:12;;;;;;;6.13;3.13;;;;;9.20;96758.00;;;;5106461;28;20609;-86
2023/11/08 02:45:02;;;;;;;2.40;1.50;;;;;9.30;96764.00;;;;5107307;28;20683;-86
2023/11/08 02:47:52;;;;;;;3.07;1.80;;;;;9.30;96764.00;;;;5102878;28;20204;-85
2023/11/08 02:50:41;;;;;;;2.50;1.53;;;;;8.90;96755.00;;;;5095382;28;20261;-85
2023/11/08 02:53:30;;;;;;;1.93;1.27;;;;;9.00;96764.00;;;;5100422;27;20191;-85
2023/11/08 02:56:19;;;;;;;3.53;2.17;;;;;8.80;96776.00;;;;5104886;28;20580;-85
2023/11/08 02:59:10;;;;;;;6.00;3.23;;;;;9.00;96779.00;;;;5105551;28;20210;-86
2023/11/08 03:01:59;;;;;;;2.93;1.70;;;;;8.70;96772.00;;;;5102054;28;20631;-85
2023/11/08 03:04:48;;;;;;;3.13;1.83;;;;;8.80;96777.00;;;;5102981;28;20218;-85
2023/11/08 03:07:37;;;;;;;2.47;1.60;;;;;8.80;96776.00;;;;5106801;28;20718;-85
2023/11/08 03:10:26;;;;;;;3.53;2.10;;;;;8.70;96772.00;;;;5104046;28;20203;-86
2023/11/08 03:13:15;;;;;;;4.90;2.83;;;;;8.70;96771.00;;;;5106392;28;20203;-85
2023/11/08 03:16:07;;;;;;;2.37;1.50;;;;;8.30;96770.00;;;;5110317;27;20201;-84
2023/11/08 03:18:57;;;;;;;1.47;1.10;;;;;8.60;96778.00;;;;5109640;27;20207;-85
2023/11/08 03:21:46;;;;;;;2.83;1.73;;;;;8.50;96789.00;;;;5105449;27;20222;-85
2023/11/08 03:24:35;;;;;;;2.13;1.50;;;;;8.50;96794.00;;;;5103374;28;20223;-85
2023/11/08 03:27:24;;;;;;;4.83;2.83;;;;;8.40;96793.00;;;;5102711;28;20228;-86
2023/11/08 03:30:15;;;;;;;3.63;2.20;;;;;8.40;96812.00;;;;5104632;28;20221;-85
2023/11/08 03:33:06;;;;;;;2.50;1.43;;;;;8.30;96805.00;;;;5109974;28;20195;-86
2023/11/08 03:35:55;;;;;;;2.23;1.40;;;;;7.70;96811.00;;;;5105528;27;20199;-87
2023/11/08 03:38:44;;;;;;;2.60;1.60;;;;;7.80;96812.00;;;;5104047;28;20195;-86
2023/11/08 03:41:33;;;;;;;2.93;1.67;;;;;7.50;96826.00;;;;5110319;28;20227;-86
2023/11/08 03:44:22;;;;;;;3.57;2.20;;;;;7.90;96823.00;;;;5108697;27;20713;-86
2023/11/08 03:47:11;;;;;;;4.43;2.53;;;;;7.70;96828.00;;;;5108195;28;20215;-86
2023/11/08 03:50:02;;;;;;;3.47;1.97;;;;;7.70;96832.00;;;;5103646;28;20686;-85
2023/11/08 03:52:51;;;;;;;1.90;1.20;;;;;7.90;96837.00;;;;5106951;28;20199;-86
2023/11/08 03:55:40;;;;;;;3.53;2.13;;;;;8.00;96837.00;;;;5104051;28;20273;-86
2023/11/08 03:58:29;;;;;;;4.67;2.50;;;;;8.00;96852.00;;;;5103101;28;20208;-85
2023/11/08 04:01:18;;;;;;;4.63;2.80;;;;;7.60;96850.00;;;;5106683;28;20227;-84
2023/11/08 04:04:08;;;;;;;2.77;1.60;;;;;7.90;96849.00;;;;5106503;28;20277;-85
2023/11/08 04:06:59;;;;;;;3.03;1.80;;;;;7.80;96852.00;;;;5105513;28;20547;-85
2023/11/08 04:09:48;;;;;;;2.87;1.60;;;;;7.60;96851.00;;;;5100191;28;20198;-85
2023/11/08 04:12:37;;;;;;;3.20;1.80;;;;;7.90;96854.00;;;;5108684;28;20240;-85
2023/11/08 04:15:27;;;;;;;3.60;2.13;;;;;7.00;96848.00;;;;5108769;28;20742;-84
2023/11/08 04:18:16;;;;;;;5.77;3.10;;;;;7.20;96859.00;;;;5101318;28;20210;-85
2023/11/08 04:21:05;;;;;;;2.20;1.30;;;;;7.40;96862.00;;;;5109955;28;20214;-85
2023/11/08 04:23:56;;;;;;;2.87;1.60;;;;;7.30;96862.00;;;;5106567;28;20581;-85
2023/11/08 04:26:45;;;;;;;3.57;1.90;;;;;7.30;96862.00;;;;5099714;28;20203;-86
2023/11/08 04:29:34;;;;;;;4.07;2.00;;;;;7.20;96863.00;;;;5109971;28;20209;-85
2023/11/08 04:32:23;;;;;;;4.40;2.27;;;;;7.00;96861.00;;;;5108546;28;20335;-86
2023/11/08 04:35:12;;;;;;;4.47;2.13;;;;;7.20;96875.00;;;;5109710;28;20197;-86
2023/11/08 04:38:01;;;;;;;3.80;1.97;;;;;7.30;96871.00;;;;5110757;28;20217;-86
2023/11/08 04:40:52;;;;;;;4.80;2.57;;;;;7.30;96873.00;;;;5099320;28;20233;-86
2023/11/08 04:43:42;;;;;;;2.23;1.37;;;;;7.20;96878.00;;;;5104141;28;20201;-86
2023/11/08 04:46:31;;;;;;;3.50;2.00;;;;;7.00;96885.00;;;;5109529;28;20667;-87
2023/11/08 04:49:20;;;;;;;7.27;3.70;;;;;7.10;96895.00;;;;5108511;27;20202;-85
2023/11/08 04:52:10;;;;;;;5.37;2.60;;;;;7.00;96890.00;;;;5106370;28;20229;-85
2023/11/08 04:55:01;;;;;;;3.90;1.97;;;;;6.90;96893.00;;;;5105679;28;20199;-86
2023/11/08 04:57:51;;;;;;;4.90;2.30;;;;;6.90;96892.00;;;;5130849;28;20212;-85
2023/11/08 05:00:41;;;;;;;3.43;1.83;;;;;6.30;96894.00;;;;5125635;28;20339;-86
2023/11/08 05:03:30;;;;;;;3.73;1.77;;;;;6.10;96890.00;;;;5119077;28;20204;-86
2023/11/08 05:06:19;;;;;;;4.67;2.23;;;;;6.30;96896.00;;;;5105377;28;20227;-85
2023/11/08 05:09:09;;;;;;;7.93;3.60;;;;;6.50;96901.00;;;;5109021;28;20206;-85
2023/11/08 05:11:58;;;;;;;3.63;1.67;;;;;6.50;96888.00;;;;5104684;27;20229;-86
2023/11/08 05:14:48;;;;;;;4.23;1.90;;;;;6.50;96896.00;;;;5099682;28;20190;-87
2023/11/08 05:17:38;;;;;;;5.33;2.30;;;;;6.50;96912.00;;;;5108507;28;20203;-86
2023/11/08 05:20:27;;;;;;;6.17;2.57;;;;;6.30;96900.00;;;;5099424;27;20195;-86
2023/11/08 05:23:16;;;;;;;8.50;3.60;;;;;6.40;96906.00;;;;5107104;28;20206;-85
2023/11/08 05:26:06;;;;;;;4.10;1.77;;;;;6.40;96915.00;;;;5108729;28;20225;-87
2023/11/08 05:28:55;;;;;;;5.67;2.50;;;;;6.50;96906.00;;;;5103090;28;20199;-86
2023/11/08 05:31:45;;;;;;;4.27;1.90;;;;;6.20;96907.00;;;;5109116;28;20251;-85
2023/11/08 05:34:34;;;;;;;3.90;1.70;;;;;6.20;96905.00;;;;5101987;28;20209;-85
2023/11/08 05:37:24;;;;;;;11.83;4.90;;;;;6.30;96910.00;;;;5106020;28;20195;-86
2023/11/08 05:40:14;;;;;;;8.10;3.40;;;;;6.00;96914.00;;;;5098716;28;20202;-85
2023/11/08 05:43:05;;;;;;;5.00;2.10;;;;;6.30;96909.00;;;;5109378;27;20280;-86
2023/11/08 05:45:55;;;;;;;7.07;2.93;;;;;6.00;96913.00;;;;5102563;28;20225;-86
2023/11/08 05:48:46;;;;;;;4.30;1.87;;;;;5.50;96910.00;;;;5100068;28;20532;-88
2023/11/08 05:51:35;;;;;;;7.57;3.00;;;;;5.20;96915.00;;;;5104393;28;20229;-87
2023/11/08 05:54:24;;;;;;;8.30;3.53;;;;;5.50;96920.00;;;;5106919;28;20235;-85
2023/11/08 05:57:15;;;;;;;15.07;5.73;;;;;5.50;96924.00;;;;5100587;28;20210;-86
2023/11/08 06:00:07;;;;;;;4.53;2.00;;;;;5.70;96936.00;;;;5093209;28;20203;-85
2023/11/08 06:02:56;;;;;;;4.90;2.10;;;;;5.10;96927.00;;;;5102396;28;20199;-87
2023/11/08 06:05:47;;;;;;;6.20;2.57;;;;;4.60;96930.00;;;;5105182;28;20215;-87
2023/11/08 06:08:36;;;;;;;6.40;2.60;;;;;5.20;96946.00;;;;5101457;28;20209;-87
2023/11/08 06:11:26;;;;;;;9.40;3.70;;;;;5.80;96949.00;;;;5107785;28;20210;-86
2023/11/08 06:14:15;;;;;;;9.30;3.73;;;;;5.90;96958.00;;;;5106579;28;20581;-86
2023/11/08 06:17:05;;;;;;;5.70;2.33;;;;;6.00;96965.00;;;;5107027;28;20213;-86
2023/11/08 06:19:54;;;;;;;4.43;1.87;;;;;5.90;96958.00;;;;5103646;28;20213;-86
2023/11/08 06:22:44;;;;;;;5.33;2.20;;;;;5.70;96973.00;;;;5102556;28;20198;-86
2023/11/08 06:25:33;;;;;;;9.73;3.80;;;;;5.00;96969.00;;;;5092401;28;20223;-85
2023/11/08 06:28:22;;;;;;;21.63;8.33;;;;;5.10;96972.00;;;;5091840;28;20210;-86
2023/11/08 06:31:12;;;;;;;10.53;4.10;;;;;5.90;96983.00;;;;5094775;28;20608;-87
2023/11/08 06:34:01;;;;;;;6.73;2.87;;;;;5.60;96975.00;;;;5097473;28;20199;-87
2023/11/08 06:36:50;;;;;;;5.70;2.43;;;;;5.40;96976.00;;;;5097704;28;20344;-86
2023/11/08 06:39:42;;;;;;;5.30;2.23;;;;;5.40;96975.00;;;;5089864;28;20564;-86
2023/11/08 06:42:31;;;;;;;4.90;2.13;;;;;5.40;96984.00;;;;5099430;28;20238;-87
2023/11/08 06:45:20;;;;;;;11.00;4.40;;;;;5.00;96981.00;;;;5093995;28;20234;-85
2023/11/08 06:48:10;;;;;;;8.53;3.17;;;;;4.80;96989.00;;;;5095211;28;20238;-85
2023/11/08 06:50:59;;;;;;;7.23;2.83;;;;;5.60;97004.00;;;;5100335;28;20224;-86
2023/11/08 06:53:48;;;;;;;5.50;2.27;;;;;5.50;97006.00;;;;5111810;28;20195;-86
2023/11/08 06:56:38;;;;;;;5.37;2.27;;;;;5.20;97004.00;;;;5107502;28;20195;-85
2023/11/08 06:59:28;;;;;;;10.37;4.27;;;;;5.50;97016.00;;;;5099479;28;20203;-86
2023/11/08 07:02:17;;;;;;;10.17;4.00;;;;;5.70;97017.00;;;;5105033;28;20702;-84
2023/11/08 07:05:06;;;;;;;2.80;1.33;;;;;5.70;97016.00;;;;5106605;28;20206;-85
2023/11/08 07:07:55;;;;;;;4.13;1.90;;;;;6.00;97023.00;;;;5107838;28;20190;-85
2023/11/08 07:10:46;;;;;;;5.77;2.30;;;;;6.10;97026.00;;;;5105122;28;20706;-84
2023/11/08 07:13:37;;;;;;;6.07;2.43;;;;;5.60;97032.00;;;;5104431;28;20203;-86
2023/11/08 07:16:28;;;;;;;9.10;3.73;;;;;5.40;97032.00;;;;5109543;28;20200;-85
2023/11/08 07:19:17;;;;;;;15.93;6.13;;;;;5.70;97035.00;;;;5100497;28;20210;-86
2023/11/08 07:22:07;;;;;;;15.13;5.77;;;;;6.30;97035.00;;;;5108498;27;20311;-85
2023/11/08 07:24:56;;;;;;;14.00;5.33;;;;;7.10;97049.00;;;;5095592;27;20202;-85
2023/11/08 07:27:45;;;;;;;6.80;2.77;;;;;7.10;97051.00;;;;5093884;28;20207;-86
2023/11/08 07:30:35;;;;;;;5.70;2.30;;;;;6.40;97043.00;;;;5102653;28;20203;-84
2023/11/08 07:33:25;;;;;;;6.97;2.87;;;;;6.20;97045.00;;;;5107204;27;20240;-84
2023/11/08 07:36:14;;;;;;;12.47;4.77;;;;;6.60;97041.00;;;;5099675;28;20199;-84
2023/11/08 07:39:04;;;;;;;10.60;3.97;;;;;7.00;97040.00;;;;5104849;28;20220;-84
2023/11/08 07:41:55;;;;;;;4.67;2.00;;;;;6.90;97049.00;;;;5093213;28;20227;-86
2023/11/08 07:44:45;;;;;;;5.70;2.30;;;;;6.60;97037.00;;;;5106211;27;20210;-85
2023/11/08 07:47:36;;;;;;;5.87;2.37;;;;;7.10;97046.00;;;;5101009;28;20226;-83
2023/11/08 07:50:25;;;;;;;8.83;3.77;;;;;7.00;97042.00;;;;5095693;28;20209;-84
2023/11/08 07:53:14;;;;;;;7.50;3.10;;;;;6.60;97046.00;;;;5105368;28;20211;-87
2023/11/08 07:56:04;;;;;;;6.73;2.70;;;;;6.80;97031.00;;;;5095496;28;20199;-85
2023/11/08 07:58:53;;;;;;;4.63;2.00;;;;;6.70;97045.00;;;;5104125;28;20671;-85
2023/11/08 08:01:43;;;;;;;4.80;2.00;;;;;7.00;97051.00;;;;5097619;28;20219;-84
2023/11/08 08:04:33;;;;;;;1.37;0.70;;;;;7.20;97048.00;;;;5103720;28;20203;-83
2023/11/08 08:07:22;;;;;;;11.60;4.53;;;;;7.60;97053.00;;;;5098490;28;20226;-84
2023/11/08 08:10:12;;;;;;;4.13;1.73;;;;;7.70;97052.00;;;;5094386;28;20203;-83
2023/11/08 08:13:03;;;;;;;5.03;2.10;;;;;7.60;97048.00;;;;5103882;27;20208;-83
2023/11/08 08:15:52;;;;;;;4.17;1.73;;;;;7.70;97057.00;;;;5091524;28;20199;-86
2023/11/08 08:18:45;;;;;;;4.13;1.73;;;;;7.10;97057.00;;;;5097820;27;20207;-87
2023/11/08 08:21:35;;;;;;;3.07;1.43;;;;;7.00;97050.00;;;;5093446;28;20292;-85
2023/11/08 08:24:24;;;;;;;7.87;3.33;;;;;7.10;97048.00;;;;5091270;28;20203;-85
2023/11/08 08:27:13;;;;;;;13.10;4.97;;;;;7.70;97061.00;;;;5096234;28;20218;-86
2023/11/08 08:30:03;;;;;;;5.57;2.27;;;;;8.00;97064.00;;;;5094499;28;20203;-84
2023/11/08 08:32:52;;;;;;;5.17;2.17;;;;;7.20;97056.00;;;;5098816;27;20199;-85
2023/11/08 08:35:42;;;;;;;6.60;2.73;;;;;6.90;97049.00;;;;5100146;28;20212;-84
2023/11/08 08:38:32;;;;;;;5.43;2.33;;;;;7.40;97056.00;;;;5101570;28;20199;-83
2023/11/08 08:41:21;;;;;;;9.10;3.73;;;;;7.60;97061.00;;;;5103831;28;20233;-84
2023/11/08 08:44:10;;;;;;;5.00;2.10;;;;;7.70;97052.00;;;;5102341;27;20219;-84
2023/11/08 08:46:59;;;;;;;5.07;2.10;;;;;8.40;97055.00;;;;5093060;28;20226;-86
2023/11/08 08:49:49;;;;;;;4.83;2.00;;;;;8.50;97063.00;;;;5094337;28;20195;-85
2023/11/08 08:52:39;;;;;;;3.40;1.57;;;;;9.10;97065.00;;;;5098510;28;20260;-84
2023/11/08 08:55:29;;;;;;;9.40;3.67;;;;;9.00;97060.00;;;;5103461;28;20199;-85
2023/11/08 08:58:18;;;;;;;9.03;3.50;;;;;9.00;97059.00;;;;5098641;28;20199;-85
2023/11/08 09:01:12;;;;;;;4.23;1.77;;;;;9.30;97062.00;;;;5101347;28;20214;-85
2023/11/08 09:04:01;;;;;;;8.38;2.70;;;;;8.90;97054.00;;;;5098850;28;20406;-85
2023/11/08 09:06:50;;;;;;;6.23;2.43;;;;;9.40;97066.00;;;;5098619;28;20694;-85
2023/11/08 09:09:39;;;;;;;5.13;2.00;;;;;9.70;97061.00;;;;5094608;28;20199;-85
2023/11/08 09:12:30;;;;;;;7.90;3.27;;;;;9.30;97058.00;;;;5102582;28;20219;-86
2023/11/08 09:15:19;;;;;;;9.20;3.60;;;;;9.80;97055.00;;;;5105729;28;20206;-85
2023/11/08 09:18:08;;;;;;;5.20;2.17;;;;;9.30;97054.00;;;;5101963;28;20237;-86
2023/11/08 09:20:57;;;;;;;6.00;2.27;;;;;9.60;97060.00;;;;5110954;28;20227;-86
2023/11/08 09:23:46;;;;;;;5.07;2.00;;;;;10.60;97073.00;;;;5111567;28;20231;-85
2023/11/08 09:26:35;;;;;;;5.50;2.27;;;;;11.00;97073.00;;;;5102006;28;20229;-86
2023/11/08 09:29:26;;;;;;;8.37;3.30;;;;;10.00;97068.00;;;;5100370;28;20202;-85
2023/11/08 09:32:15;;;;;;;9.23;3.53;;;;;10.60;97069.00;;;;5103257;27;20219;-84
2023/11/08 09:35:04;;;;;;;4.90;2.00;;;;;10.80;97061.00;;;;5106075;27;20197;-86
2023/11/08 09:37:55;;;;;;;5.23;2.10;;;;;10.80;97061.00;;;;5105401;28;20725;-85
2023/11/08 09:40:44;;;;;;;4.90;2.07;;;;;11.40;97060.00;;;;5102610;28;20675;-85
2023/11/08 09:43:36;;;;;;;5.10;2.00;;;;;11.60;97074.00;;;;5110553;28;20203;-84
2023/11/08 09:46:28;;;;;;;9.50;3.77;;;;;11.60;97060.00;;;;5104416;28;20213;-85
2023/11/08 09:49:17;;;;;;;14.07;5.67;;;;;12.30;97056.00;;;;5104541;28;20233;-85
2023/11/08 09:52:07;;;;;;;6.10;2.47;;;;;12.20;97066.00;;;;5095998;28;20245;-85
2023/11/08 09:54:56;;;;;;;7.67;3.00;;;;;12.10;97053.00;;;;5096761;28;20204;-84
2023/11/08 09:57:45;;;;;;;6.73;2.73;;;;;12.30;97053.00;;;;5100127;27;20196;-85
2023/11/08 10:00:35;;;;;;;6.47;2.73;;;;;12.20;97053.00;;;;5099201;28;20263;-86
2023/11/08 10:03:26;;;;;;;9.97;4.03;;;;;12.70;97038.00;;;;5107267;28;20212;-84
2023/11/08 10:06:16;;;;;;;12.13;3.83;;;;;13.20;97058.00;;;;5095992;28;20402;-84
2023/11/08 10:09:06;;;;;;;11.43;4.30;;;;;13.70;97051.00;;;;5096247;28;20213;-84
2023/11/08 10:11:55;;;;;;;7.30;2.83;;;;;13.90;97057.00;;;;5093466;28;20304;-86
2023/11/08 10:14:45;;;;;;;5.20;2.10;;;;;13.60;97051.00;;;;5097744;28;20206;-90
2023/11/08 10:17:38;;;;;;;4.60;2.00;;;;;14.40;97062.00;;;;5091546;28;20199;-87
2023/11/08 10:20:34;;;;;;;9.83;4.00;;;;;14.60;97056.00;;;;5102682;28;20195;-87
2023/11/08 10:23:28;;;;;;;14.07;4.40;;;;;15.40;97048.00;;;;5098584;28;20410;-86
2023/11/08 10:26:19;;;;;;;11.27;4.17;;;;;14.20;97032.00;;;;5099736;28;20203;-88
2023/11/08 10:29:10;;;;;;;8.40;3.30;;;;;14.70;97038.00;;;;5095544;28;20697;-86
2023/11/08 10:32:00;;;;;;;4.83;2.00;;;;;15.90;97037.00;;;;5115800;27;20240;-90
2023/11/08 10:34:50;;;;;;;6.75;2.25;;;;;15.00;97043.00;;;;5101671;28;20902;-87
2023/11/08 10:37:41;;;;;;;3.83;1.40;;;;;16.70;97048.00;;;;5107441;28;20198;-87
2023/11/08 10:40:31;;;;;;;8.10;3.07;;;;;15.40;97032.00;;;;5098605;28;20210;-87
2023/11/08 10:43:24;;;;;;;10.30;3.90;;;;;15.20;97038.00;;;;5102640;28;20207;-86
2023/11/08 10:46:13;;;;;;;5.67;2.13;;;;;15.40;97021.00;;;;5108375;28;20565;-92
2023/11/08 10:49:04;;;;;;;9.00;3.23;;;;;13.80;97047.00;;;;5101783;28;20226;-91
2023/11/08 10:51:53;;;;;;;5.97;2.13;;;;;14.30;97008.00;;;;5104865;28;20227;-86
2023/11/08 10:54:44;;;;;;;4.50;1.80;;;;;14.00;97006.00;;;;5096277;28;20207;-87
2023/11/08 10:57:34;;;;;;;6.07;2.30;;;;;15.10;97043.00;;;;5112977;27;20214;-86
2023/11/08 11:00:24;;;;;;;12.20;4.37;;;;;15.10;97014.00;;;;5114015;28;20203;-87
2023/11/08 11:03:14;;;;;;;4.87;1.80;;;;;15.80;97042.00;;;;5110255;28;20210;-86
2023/11/08 11:06:05;;;;;;;6.23;2.23;;;;;14.90;96999.00;;;;5108700;27;20194;-87
2023/11/08 11:08:57;;;;;;;7.13;2.60;;;;;16.50;97035.00;;;;5102280;28;20229;-86
2023/11/08 11:11:52;;;;;;;6.47;2.30;;;;;16.30;97011.00;;;;5101177;28;20226;-88
2023/11/08 11:14:45;;;;;;;5.53;2.03;;;;;15.70;97037.00;;;;5103539;28;20195;-86
2023/11/08 11:17:38;;;;;;;7.40;2.63;;;;;14.90;96999.00;;;;5105879;28;20611;-89
2023/11/08 11:20:32;;;;;;;15.37;4.83;;;;;15.10;97036.00;;;;5108911;27;20233;-86
2023/11/08 11:23:32;;;;;;;12.50;4.60;;;;;14.80;97035.00;;;;5109927;28;20210;-86
2023/11/08 11:26:47;;;;;;;10.17;3.80;;;;;15.50;97054.00;;;;5118155;28;20659;-87
2023/11/08 11:29:37;;;;;;;7.07;2.87;;;;;15.30;97040.00;;;;5114013;28;20231;-87
2023/11/08 11:32:35;;;;;;;11.37;4.37;;;;;16.10;97004.00;;;;5097461;28;20230;-87
2023/11/08 11:35:56;;;;;;;5.57;2.30;;;;;16.10;97012.00;;;;5107542;28;20579;-88
2023/11/08 11:38:45;;;;;;;3.70;1.50;;;;;17.80;97027.00;;;;5105356;28;20209;-87
2023/11/08 11:41:36;;;;;;;5.03;2.03;;;;;19.30;97015.00;;;;5098835;28;20219;-87
2023/11/08 11:44:40;;;;;;;13.80;5.00;;;;;20.50;97017.00;;;;5100883;27;20557;-87
2023/11/08 11:47:30;;;;;;;10.20;3.63;;;;;21.00;97005.00;;;;5099545;27;20197;-87
2023/11/08 11:50:20;;;;;;;15.97;5.20;;;;;21.60;97005.00;;;;5109306;27;20252;-87
2023/11/08 11:53:11;;;;;;;7.53;2.50;;;;;21.60;97056.00;;;;5113987;27;20235;-87
2023/11/08 11:56:06;;;;;;;6.40;2.13;;;;;19.70;97053.00;;;;5105977;27;20203;-86
2023/11/08 11:58:55;;;;;;;5.90;2.00;;;;;19.00;97044.00;;;;5107191;28;20201;-87
2023/11/08 12:01:45;;;;;;;6.30;2.25;;;;;17.00;97044.00;;;;5099658;28;20278;-86
2023/11/08 12:04:35;;;;;;;7.07;2.60;;;;;17.30;97024.00;;;;5100391;28;20210;-87
2023/11/08 12:07:24;;;;;;;15.17;5.67;;;;;18.10;96983.00;;;;5102223;28;20312;-86
2023/11/08 12:10:18;;;;;;;7.05;2.40;;;;;19.90;96996.00;;;;5095237;28;20276;-87
2023/11/08 12:13:08;;;;;;;7.20;2.50;;;;;21.50;97002.00;;;;5127601;28;20206;-88
2023/11/08 12:16:01;;;;;;;7.30;2.43;;;;;22.30;97009.00;;;;5131011;27;20179;-87
2023/11/08 12:18:52;;;;;;;9.30;3.03;;;;;22.30;97002.00;;;;5127166;28;20195;-86
2023/11/08 12:21:41;;;;;;;16.77;11.70;;;;;23.40;97003.00;;;;5117535;28;20203;-86
2023/11/08 12:24:32;;;;;;;12.97;4.23;;;;;21.20;96992.00;;;;5122917;28;20692;-87
2023/11/08 12:27:21;;;;;;;15.03;4.97;;;;;20.20;96989.00;;;;5108489;28;20205;-87
2023/11/08 12:30:11;;;;;;;5.57;1.90;;;;;22.70;97002.00;;;;5110058;28;20205;-87
2023/11/08 12:33:00;;;;;;;4.53;1.57;;;;;22.20;96999.00;;;;5107963;28;20201;-87
2023/11/08 12:35:51;;;;;;;4.37;1.50;;;;;20.80;97001.00;;;;5108773;28;20209;-87
2023/11/08 12:38:41;;;;;;;6.27;2.10;;;;;23.50;96999.00;;;;5117448;27;20209;-86
2023/11/08 12:41:42;;;;;;;14.47;4.63;;;;;25.60;97003.00;;;;5122432;28;20241;-87
2023/11/08 12:44:46;;;;;;;16.00;5.20;;;;;22.90;96983.00;;;;5129229;27;20204;-87
2023/11/08 12:47:35;;;;;;;7.03;2.23;;;;;20.50;97014.00;;;;5136028;27;20208;-87
2023/11/08 12:50:25;;;;;;;12.33;3.93;;;;;20.60;97004.00;;;;5133816;28;20204;-88
2023/11/08 12:53:15;;;;;;;7.80;2.60;;;;;19.20;97059.00;;;;5131611;28;20208;-87
2023/11/08 12:56:06;;;;;;;7.93;2.63;;;;;19.00;96985.00;;;;5123404;28;20194;-89
2023/11/08 12:59:10;;;;;;;7.67;2.60;;;;;17.40;96972.00;;;;5105999;28;20652;-89
2023/11/08 13:02:14;;;;;;;3.93;1.40;;;;;17.90;97039.00;;;;5104813;28;20264;-87
2023/11/08 13:05:04;;;;;;;5.15;1.95;;;;;17.20;97026.00;;;;5107735;27;20203;-87
2023/11/08 13:07:53;;;;;;;6.90;2.43;;;;;20.20;96991.00;;;;5106839;28;20207;-86
2023/11/08 13:10:44;;;;;;;8.53;2.93;;;;;21.70;97040.00;;;;5104843;28;20218;-86
2023/11/08 13:13:34;;;;;;;7.17;2.60;;;;;19.20;97048.00;;;;5113892;28;20217;-87
2023/11/08 13:16:24;;;;;;;8.53;2.90;;;;;17.70;97044.00;;;;5115194;28;20667;-87
2023/11/08 13:19:13;;;;;;;12.23;4.23;;;;;16.10;97038.00;;;;5105043;28;20582;-85
2023/11/08 13:22:03;;;;;;;3.23;1.27;;;;;14.40;97025.00;;;;5110528;28;20896;-86
2023/11/08 13:24:52;;;;;;;3.93;1.57;;;;;14.40;97036.00;;;;5130722;28;20194;-88
2023/11/08 13:27:43;;;;;;;3.57;1.37;;;;;15.00;97020.00;;;;5131927;28;20198;-85
2023/11/08 13:30:33;;;;;;;10.67;4.37;;;;;15.10;97015.00;;;;5117301;28;20229;-86
2023/11/08 13:33:22;;;;;;;11.60;4.70;;;;;17.40;96968.00;;;;5102477;28;20592;-87
2023/11/08 13:36:13;;;;;;;3.43;1.50;;;;;17.90;96975.00;;;;5116222;28;20248;-87
2023/11/08 13:39:04;;;;;;;8.87;3.33;;;;;19.80;96986.00;;;;5111836;28;20201;-87
2023/11/08 13:41:53;;;;;;;8.70;3.00;;;;;21.10;96987.00;;;;5112423;28;20679;-87
2023/11/08 13:44:44;;;;;;;6.73;2.43;;;;;22.70;97009.00;;;;5115997;28;20194;-87
2023/11/08 13:47:33;;;;;;;11.37;3.73;;;;;22.40;96984.00;;;;5104657;28;20213;-87
2023/11/08 13:50:22;;;;;;;13.17;4.27;;;;;23.60;96987.00;;;;5107514;28;20225;-87
2023/11/08 13:53:11;;;;;;;9.47;3.00;;;;;24.20;96992.00;;;;5109777;28;20212;-87
2023/11/08 13:56:00;;;;;;;7.60;2.50;;;;;21.70;96990.00;;;;5101449;28;20208;-87
2023/11/08 13:58:49;;;;;;;7.93;2.57;;;;;19.00;96984.00;;;;5106534;28;20210;-87
2023/11/08 14:01:40;;;;;;;7.10;2.23;;;;;20.80;96985.00;;;;5103975;28;20225;-87
2023/11/08 14:04:29;;;;;;;14.20;4.57;;;;;22.40;96999.00;;;;5111887;28;20202;-87
2023/11/08 14:07:18;;;;;;;18.10;5.43;;;;;23.10;97005.00;;;;5113271;28;20806;-86
2023/11/08 14:10:08;;;;;;;7.77;2.60;;;;;20.90;97000.00;;;;5115383;27;20221;-87
2023/11/08 14:12:57;;;;;;;7.00;2.30;;;;;20.40;97005.00;;;;5117860;28;20665;-87
2023/11/08 14:15:46;;;;;;;5.77;1.93;;;;;20.10;96998.00;;;;5111910;28;20199;-87
2023/11/08 14:18:37;;;;;;;6.73;2.27;;;;;20.00;96998.00;;;;5107914;27;20224;-87